Time;durP1;ratioP1;P1;durP2;ratioP2;P2;SDS_P1;SDS_P2;PMS_P1;PMS_P2;Temp;Humidity;BMP_temperature;BMP_pressure;BME280_temperature;BME280_humidity;BME280_pressure;Samples;Min_cycle;Max_cycle;Signal;HPM_P1;HPM_P2
2023/08/01 00:03:20;;;;;;;3.67;2.23;;;18.60;1.00;;;;;;8248727;28;20212;-63
2023/08/01 00:07:21;;;;;;;2.60;1.87;;;18.60;1.00;;;;;;8243256;28;20318;-61
2023/08/01 00:11:21;;;;;;;3.47;2.13;;;18.60;1.00;;;;;;8247044;28;20265;-63
2023/08/01 00:15:22;;;;;;;2.33;1.83;;;18.60;1.00;;;;;;8244273;28;20238;-65
2023/08/01 00:19:23;;;;;;;4.63;2.27;;;18.70;1.00;;;;;;8245866;28;20191;-62
2023/08/01 00:23:24;;;;;;;4.37;2.33;;;18.70;1.00;;;;;;8245761;28;20176;-61
2023/08/01 00:27:25;;;;;;;2.93;2.13;;;18.70;1.00;;;;;;8251564;28;20199;-62
2023/08/01 00:31:25;;;;;;;2.70;2.20;;;18.70;1.00;;;;;;8246798;28;20343;-63
2023/08/01 00:35:26;;;;;;;3.93;1.90;;;18.70;1.00;;;;;;8243492;28;20203;-62
2023/08/01 00:39:27;;;;;;;3.77;2.13;;;18.70;1.00;;;;;;8247211;28;20185;-65
2023/08/01 00:43:28;;;;;;;3.90;2.20;;;18.70;1.00;;;;;;8243425;28;20207;-62
2023/08/01 00:47:29;;;;;;;3.10;2.20;;;18.70;1.00;;;;;;8251480;28;20187;-61
2023/08/01 00:51:32;;;;;;;3.63;2.03;;;18.70;1.00;;;;;;8242085;28;20211;-65
2023/08/01 00:55:34;;;;;;;5.97;2.17;;;18.60;1.00;;;;;;8237974;28;20323;-68
2023/08/01 00:59:35;;;;;;;3.50;2.33;;;18.70;1.00;;;;;;8240260;28;20188;-70
2023/08/01 01:03:37;;;;;;;4.60;2.60;;;18.70;1.00;;;;;;8244955;28;20192;-69
2023/08/01 01:07:38;;;;;;;4.33;2.83;;;18.70;1.00;;;;;;8244728;28;20192;-69
2023/08/01 01:11:39;;;;;;;3.30;2.60;;;18.80;1.00;;;;;;8251852;28;20216;-66
2023/08/01 01:15:39;;;;;;;4.43;2.47;;;19.00;1.00;;;;;;8247834;28;20211;-68
2023/08/01 01:19:40;;;;;;;3.60;2.10;;;19.10;1.00;;;;;;8241662;28;20215;-65
2023/08/01 01:23:42;;;;;;;4.33;2.63;;;19.20;1.00;;;;;;8241731;28;20287;-68
2023/08/01 01:27:45;;;;;;;5.90;2.93;;;19.20;1.00;;;;;;8245350;28;20191;-68
2023/08/01 01:31:47;;;;;;;4.37;2.90;;;19.10;1.00;;;;;;8246025;28;20219;-64
2023/08/01 01:35:48;;;;;;;5.40;2.60;;;19.10;1.00;;;;;;8242691;28;20191;-69
2023/08/01 01:39:49;;;;;;;3.83;2.53;;;18.90;1.00;;;;;;8237898;28;20183;-70
2023/08/01 01:43:49;;;;;;;5.37;2.87;;;18.70;1.00;;;;;;8250432;28;20214;-71
2023/08/01 01:47:50;;;;;;;4.40;2.87;;;18.60;1.00;;;;;;8240308;28;20297;-69
2023/08/01 01:51:51;;;;;;;3.43;2.73;;;18.40;1.00;;;;;;8242398;28;20215;-69
2023/08/01 01:55:53;;;;;;;3.50;2.77;;;18.20;1.00;;;;;;8234450;28;20308;-67
2023/08/01 01:59:54;;;;;;;4.10;2.63;;;18.10;14.20;;;;;;8243946;28;20262;-68
2023/08/01 02:03:54;;;;;;;3.47;2.47;;;17.90;37.50;;;;;;8243252;28;20187;-67
2023/08/01 02:07:55;;;;;;;3.20;2.50;;;17.80;56.80;;;;;;8243681;28;20766;-67
2023/08/01 02:11:56;;;;;;;3.93;2.77;;;17.70;87.00;;;;;;8244314;28;20214;-69
2023/08/01 02:15:57;;;;;;;3.10;2.70;;;17.70;99.90;;;;;;8244130;28;20196;-69
2023/08/01 02:19:58;;;;;;;4.53;2.43;;;17.60;99.90;;;;;;8245313;28;20184;-67
2023/08/01 02:23:58;;;;;;;3.77;2.70;;;17.60;99.90;;;;;;8246356;28;20187;-69
2023/08/01 02:27:59;;;;;;;3.87;2.80;;;17.50;99.90;;;;;;8238493;28;20531;-70
2023/08/01 02:32:00;;;;;;;3.53;2.57;;;17.50;99.90;;;;;;8254808;28;20220;-70
2023/08/01 02:36:00;;;;;;;4.93;3.00;;;17.40;99.90;;;;;;8243744;28;20249;-68
2023/08/01 02:40:07;;;;;;;6.13;2.70;;;17.40;99.90;;;;;;8253027;28;20193;-70
2023/08/01 02:44:07;;;;;;;5.63;3.00;;;17.30;99.90;;;;;;8235760;28;20216;-69
2023/08/01 02:48:08;;;;;;;5.60;3.03;;;17.40;99.90;;;;;;8240746;28;20183;-69
2023/08/01 02:52:10;;;;;;;4.67;2.50;;;17.40;99.90;;;;;;8240355;28;20310;-68
2023/08/01 02:56:10;;;;;;;3.53;2.63;;;17.40;99.90;;;;;;8241515;28;20188;-67
2023/08/01 03:00:11;;;;;;;3.27;2.70;;;17.50;99.90;;;;;;8233320;28;20186;-69
2023/08/01 03:04:12;;;;;;;3.53;2.70;;;17.50;99.90;;;;;;8240426;28;20199;-71
2023/08/01 03:08:13;;;;;;;2.90;2.43;;;17.40;99.90;;;;;;8243701;28;20215;-66
2023/08/01 03:12:14;;;;;;;4.03;2.80;;;17.40;99.90;;;;;;8245001;28;20216;-67
2023/08/01 03:16:14;;;;;;;2.70;2.30;;;17.50;96.80;;;;;;8240013;28;20227;-67
2023/08/01 03:20:15;;;;;;;4.20;2.60;;;17.50;93.30;;;;;;8244781;28;20235;-69
2023/08/01 03:24:16;;;;;;;3.63;2.60;;;17.50;90.90;;;;;;8242110;28;20194;-68
2023/08/01 03:28:17;;;;;;;4.30;2.80;;;17.50;90.10;;;;;;8244186;28;20188;-70
2023/08/01 03:32:18;;;;;;;3.60;2.60;;;17.50;79.10;;;;;;8240620;28;20204;-65
2023/08/01 03:36:19;;;;;;;4.73;2.60;;;17.50;73.10;;;;;;8239657;28;20195;-69
2023/08/01 03:40:19;;;;;;;3.03;2.57;;;17.50;57.60;;;;;;8239496;28;20218;-67
2023/08/01 03:44:20;;;;;;;3.60;2.70;;;17.60;37.30;;;;;;8250212;28;20196;-66
2023/08/01 03:48:21;;;;;;;3.27;2.30;;;17.60;22.90;;;;;;8250633;28;20195;-68
2023/08/01 03:52:22;;;;;;;3.60;2.37;;;17.70;8.70;;;;;;8242801;28;20443;-70
2023/08/01 03:56:23;;;;;;;4.57;2.97;;;17.70;1.00;;;;;;8244268;28;20188;-70
2023/08/01 04:00:23;;;;;;;3.37;2.67;;;17.70;1.00;;;;;;8238225;28;20206;-67
2023/08/01 04:04:24;;;;;;;3.80;2.67;;;17.80;1.00;;;;;;8244286;28;20207;-65
2023/08/01 04:08:25;;;;;;;4.87;2.90;;;17.90;21.70;;;;;;8242876;28;20207;-68
2023/08/01 04:12:26;;;;;;;4.57;3.07;;;17.90;62.60;;;;;;8240037;28;20223;-69
2023/08/01 04:16:26;;;;;;;3.73;2.80;;;17.80;97.40;;;;;;8248331;28;20195;-71
2023/08/01 04:20:27;;;;;;;5.40;3.20;;;17.70;99.90;;;;;;8249536;28;20188;-70
2023/08/01 04:24:29;;;;;;;3.60;2.67;;;17.70;99.90;;;;;;8249308;28;20187;-68
2023/08/01 04:28:30;;;;;;;4.20;2.47;;;17.70;99.90;;;;;;8264126;28;20187;-68
2023/08/01 04:32:31;;;;;;;5.73;2.80;;;17.60;99.90;;;;;;8245995;28;20207;-66
2023/08/01 04:36:31;;;;;;;3.57;2.70;;;17.60;99.90;;;;;;8241933;28;20219;-71
2023/08/01 04:40:32;;;;;;;4.50;3.03;;;17.50;99.90;;;;;;8246200;28;20189;-68
2023/08/01 04:44:33;;;;;;;3.87;3.37;;;17.50;99.90;;;;;;8247899;28;21509;-68
2023/08/01 04:48:34;;;;;;;3.87;2.90;;;17.50;1.00;;;;;;8248292;28;20189;-66
2023/08/01 04:52:34;;;;;;;4.47;2.80;;;17.40;1.00;;;;;;8241696;28;20747;-70
2023/08/01 04:56:35;;;;;;;5.27;3.10;;;17.50;1.00;;;;;;8245370;28;20180;-65
2023/08/01 05:00:36;;;;;;;4.40;2.87;;;17.50;1.00;;;;;;8244279;28;20209;-69
2023/08/01 05:04:38;;;;;;;3.97;2.73;;;17.50;1.00;;;;;;8242062;28;20188;-66
2023/08/01 05:08:38;;;;;;;4.63;2.73;;;17.60;1.00;;;;;;8237780;28;20226;-66
2023/08/01 05:12:39;;;;;;;3.80;2.77;;;17.70;1.00;;;;;;8246981;28;20208;-68
2023/08/01 05:16:40;;;;;;;4.97;2.97;;;17.80;1.00;;;;;;8247271;28;20214;-66
2023/08/01 05:20:40;;;;;;;2.97;2.40;;;18.00;1.00;;;;;;8241020;28;20190;-66
2023/08/01 05:24:41;;;;;;;2.87;2.47;;;18.30;1.00;;;;;;8244716;28;20188;-67
2023/08/01 05:28:42;;;;;;;2.70;2.30;;;18.80;1.00;;;;;;8242035;28;20275;-63
2023/08/01 05:32:45;;;;;;;3.27;2.37;;;19.20;99.90;;;;;;8237643;28;20311;-65
2023/08/01 05:36:45;;;;;;;2.57;2.07;;;19.50;99.90;;;;;;8242995;28;20198;-62
2023/08/01 05:40:48;;;;;;;3.73;2.30;;;19.50;99.90;;;;;;8243160;28;20193;-63
2023/08/01 05:44:48;;;;;;;2.23;1.90;;;19.40;99.90;;;;;;8239779;28;20230;-62
2023/08/01 05:48:49;;;;;;;2.23;1.83;;;19.30;99.90;;;;;;8237580;28;20189;-65
2023/08/01 05:52:50;;;;;;;2.00;1.80;;;19.10;99.90;;;;;;8229419;28;20212;-62
2023/08/01 05:56:51;;;;;;;3.57;1.73;;;19.00;99.90;;;;;;8240897;28;20184;-63
2023/08/01 06:00:52;;;;;;;2.70;1.80;;;18.90;99.90;;;;;;8242872;28;20274;-65
2023/08/01 06:04:52;;;;;;;3.00;1.70;;;18.90;99.90;;;;;;8239573;28;20195;-63
2023/08/01 06:08:53;;;;;;;3.23;1.80;;;19.00;99.90;;;;;;8241952;28;20207;-63
2023/08/01 06:12:54;;;;;;;2.10;1.53;;;19.10;99.90;;;;;;8237606;28;20206;-63
2023/08/01 06:16:54;;;;;;;2.30;1.63;;;19.40;99.90;;;;;;8240075;28;20302;-64
2023/08/01 06:20:55;;;;;;;1.47;1.10;;;19.40;99.90;;;;;;8237757;28;20199;-62
2023/08/01 06:24:56;;;;;;;1.63;1.40;;;19.40;99.90;;;;;;8239316;28;20191;-64
2023/08/01 06:28:57;;;;;;;1.70;1.47;;;19.40;99.90;;;;;;8240419;28;20272;-62
2023/08/01 06:32:57;;;;;;;1.93;1.50;;;19.50;99.90;;;;;;8241463;28;20215;-63
2023/08/01 06:36:58;;;;;;;1.50;1.03;;;19.90;99.90;;;;;;8236674;28;20195;-65
2023/08/01 06:40:59;;;;;;;1.10;0.80;;;20.10;26.20;;;;;;8233629;28;20418;-65
2023/08/01 06:45:00;;;;;;;1.10;0.97;;;20.10;15.20;;;;;;8235758;28;20206;-67
2023/08/01 06:49:01;;;;;;;1.47;1.00;;;19.90;19.50;;;;;;8240947;28;20202;-69
2023/08/01 06:53:01;;;;;;;1.50;1.10;;;19.70;41.10;;;;;;8236877;28;20222;-65
2023/08/01 06:57:02;;;;;;;3.57;1.20;;;19.60;97.70;;;;;;8231562;28;20184;-66
2023/08/01 07:01:03;;;;;;;1.37;1.10;;;19.50;99.90;;;;;;8239683;28;20184;-64
2023/08/01 07:05:04;;;;;;;2.27;0.97;;;19.60;99.90;;;;;;8239525;28;20188;-67
2023/08/01 07:09:06;;;;;;;2.47;0.93;;;19.90;99.90;;;;;;8246453;28;20204;-68
2023/08/01 07:13:06;;;;;;;3.30;0.90;;;20.50;91.30;;;;;;8230522;28;20203;-68
2023/08/01 07:17:07;;;;;;;1.77;0.70;;;21.10;4.40;;;;;;8241811;28;20205;-68
2023/08/01 07:21:08;;;;;;;2.27;0.80;;;21.20;1.00;;;;;;8236238;28;20195;-67
2023/08/01 07:25:09;;;;;;;1.70;1.00;;;21.40;1.00;;;;;;8241749;28;20520;-66
2023/08/01 07:29:11;;;;;;;1.67;1.07;;;21.40;1.00;;;;;;8242757;28;20188;-68
2023/08/01 07:33:11;;;;;;;1.90;1.43;;;21.20;1.00;;;;;;8243930;28;20218;-67
2023/08/01 07:37:12;;;;;;;3.80;1.60;;;21.00;1.00;;;;;;8238461;28;20191;-68
2023/08/01 07:41:13;;;;;;;1.63;0.90;;;20.90;1.00;;;;;;8244426;28;20188;-65
2023/08/01 07:45:14;;;;;;;2.33;1.00;;;21.00;1.00;;;;;;8240545;28;20187;-67
2023/08/01 07:49:14;;;;;;;1.53;1.30;;;21.00;1.00;;;;;;8240087;28;20195;-62
2023/08/01 07:53:15;;;;;;;1.70;1.33;;;21.10;1.00;;;;;;8240610;28;20247;-62
2023/08/01 07:57:16;;;;;;;3.67;1.67;;;21.30;1.00;;;;;;8241593;28;20181;-64
2023/08/01 08:01:17;;;;;;;1.63;1.10;;;21.30;1.00;;;;;;8241177;28;20701;-61
2023/08/01 08:05:17;;;;;;;2.87;1.70;;;21.50;1.00;;;;;;8243794;28;20246;-62
2023/08/01 08:09:18;;;;;;;3.00;1.70;;;21.70;1.00;;;;;;8246562;28;20266;-62
2023/08/01 08:13:20;;;;;;;1.63;1.30;;;21.90;1.00;;;;;;8243949;28;20220;-61
2023/08/01 08:17:21;;;;;;;3.43;1.40;;;22.30;1.00;;;;;;8243430;28;20191;-64
2023/08/01 08:21:22;;;;;;;1.63;1.33;;;22.80;1.00;;;;;;8242420;28;20184;-62
2023/08/01 08:25:22;;;;;;;2.27;1.40;;;23.20;1.00;;;;;;8247225;28;20194;-62
2023/08/01 08:29:23;;;;;;;1.63;1.30;;;23.50;1.00;;;;;;8240555;28;20229;-65
2023/08/01 08:33:24;;;;;;;2.40;1.10;;;23.60;1.00;;;;;;8246326;28;20207;-63
2023/08/01 08:37:25;;;;;;;2.70;1.33;;;23.80;1.00;;;;;;8256805;28;20211;-64
2023/08/01 08:41:27;;;;;;;1.97;1.57;;;23.80;1.00;;;;;;8244970;28;20620;-62
2023/08/01 08:45:32;;;;;;;2.27;1.67;;;23.50;1.00;;;;;;8241774;28;20187;-63
2023/08/01 08:49:33;;;;;;;1.93;1.50;;;23.00;1.00;;;;;;8254497;28;20507;-63
2023/08/01 08:53:35;;;;;;;2.13;1.67;;;22.70;1.00;;;;;;8246036;28;20459;-63
2023/08/01 08:57:36;;;;;;;3.20;1.60;;;22.80;1.00;;;;;;8243871;28;20180;-64
2023/08/01 09:01:38;;;;;;;3.03;1.60;;;23.00;1.00;;;;;;8243185;28;20277;-63
2023/08/01 09:05:48;;;;;;;2.40;1.70;;;22.90;1.00;;;;;;8256944;28;20215;-62
2023/08/01 09:09:49;;;;;;;2.00;1.50;;;22.60;1.00;;;;;;8244146;28;20630;-64
2023/08/01 09:13:50;;;;;;;2.27;1.40;;;22.80;1.00;;;;;;8250805;28;20208;-66
2023/08/01 09:17:53;;;;;;;3.73;1.70;;;23.10;1.00;;;;;;8247342;28;20271;-64
2023/08/01 09:21:54;;;;;;;1.77;1.40;;;23.60;1.00;;;;;;8242656;28;20188;-62
2023/08/01 09:25:56;;;;;;;4.57;1.63;;;24.00;1.00;;;;;;8241457;28;20187;-62
2023/08/01 09:30:15;;;;;;;2.80;1.27;;;24.30;1.00;;;;;;8247350;28;20195;-61
2023/08/01 09:34:24;;;;;;;1.93;1.20;;;24.40;1.00;;;;;;8244161;28;20223;-61
2023/08/01 09:38:28;;;;;;;1.33;1.20;;;24.50;1.00;;;;;;8248132;28;20181;-64
2023/08/01 09:42:38;;;;;;;1.57;1.30;;;24.80;1.00;;;;;;8241479;28;20223;-62
2023/08/01 09:46:39;;;;;;;1.42;1.00;;;24.90;1.00;;;;;;8244179;28;20188;-62
2023/08/01 09:50:40;;;;;;;2.03;1.13;;;24.90;1.00;;;;;;8242124;28;20335;-63
2023/08/01 09:54:41;;;;;;;1.48;1.00;;;25.00;1.00;;;;;;8244166;28;20219;-63
2023/08/01 09:58:43;;;;;;;1.37;1.00;;;24.80;1.00;;;;;;8240391;28;20192;-63
2023/08/01 10:02:45;;;;;;;1.15;0.73;;;24.70;1.00;;;;;;8244803;28;20197;-64
2023/08/01 10:06:50;;;;;;;1.57;0.73;;;24.70;1.00;;;;;;8238072;28;20188;-64
2023/08/01 10:10:51;;;;;;;4.10;0.70;;;24.90;1.00;;;;;;8239397;28;20212;-67
2023/08/01 10:14:53;;;;;;;0.90;0.60;;;25.00;99.90;;;;;;8238433;28;20207;-66
2023/08/01 10:18:54;;;;;;;1.15;0.60;;;25.20;99.90;;;;;;8239549;28;20716;-66
2023/08/01 10:22:56;;;;;;;0.63;0.52;;;25.60;99.90;;;;;;8237446;28;20195;-66
2023/08/01 10:26:56;;;;;;;2.47;0.77;;;26.00;99.90;;;;;;8243967;28;20192;-66
2023/08/01 10:31:10;;;;;;;1.00;0.52;;;25.90;99.90;;;;;;8243597;28;20258;-63
2023/08/01 10:35:12;;;;;;;1.45;0.70;;;26.10;99.90;;;;;;8246352;28;20278;-63
2023/08/01 10:39:22;;;;;;;0.70;0.57;;;25.90;99.90;;;;;;8242569;28;20187;-63
2023/08/01 10:43:24;;;;;;;0.50;0.38;;;25.80;99.90;;;;;;8243160;28;20191;-66
2023/08/01 10:47:27;;;;;;;1.23;0.32;;;25.60;99.90;;;;;;8240948;28;20275;-63
2023/08/01 10:51:35;;;;;;;0.77;0.50;;;25.50;99.90;;;;;;8243133;28;20231;-64
2023/08/01 10:55:45;;;;;;;1.27;0.50;;;25.00;99.90;;;;;;8237917;28;20287;-66
2023/08/01 10:59:46;;;;;;;1.60;0.37;;;24.40;99.90;;;;;;8253002;28;20189;-62
2023/08/01 11:03:46;;;;;;;0.80;0.50;;;24.20;99.90;;;;;;8239239;28;20195;-61
2023/08/01 11:07:58;;;;;;;0.60;0.40;;;24.20;99.90;;;;;;8236690;28;20195;-63
2023/08/01 11:12:00;;;;;;;1.10;0.80;;;24.20;99.90;;;;;;8240506;28;20211;-65
2023/08/01 11:16:06;;;;;;;0.83;0.60;;;24.20;99.90;;;;;;8242089;28;20264;-64
2023/08/01 11:20:08;;;;;;;1.50;0.90;;;24.30;99.90;;;;;;8262621;28;20185;-61
2023/08/01 11:24:09;;;;;;;1.50;0.67;;;24.50;99.90;;;;;;8242673;28;20187;-64
2023/08/01 11:28:13;;;;;;;1.20;0.70;;;24.30;99.90;;;;;;8252041;28;20188;-63
2023/08/01 11:32:14;;;;;;;0.60;0.30;;;24.60;99.90;;;;;;8244729;28;20207;-63
2023/08/01 11:36:14;;;;;;;2.63;0.70;;;24.80;99.90;;;;;;8254050;28;20203;-64
2023/08/01 11:40:15;;;;;;;2.00;0.80;;;25.30;99.90;;;;;;8259187;28;20262;-63
2023/08/01 11:44:16;;;;;;;1.20;0.90;;;25.50;99.90;;;;;;8245632;28;20191;-64
2023/08/01 11:48:18;;;;;;;0.98;0.80;;;25.60;99.90;;;;;;8254840;28;20196;-67
2023/08/01 11:52:26;;;;;;;1.33;0.93;;;25.40;99.90;;;;;;8255280;28;20211;-65
2023/08/01 11:56:27;;;;;;;1.00;0.90;;;25.40;99.90;;;;;;8250401;28;20211;-64
2023/08/01 12:00:29;;;;;;;1.53;1.00;;;25.10;99.90;;;;;;8250000;28;20194;-66
2023/08/01 12:04:29;;;;;;;2.27;1.00;;;24.80;99.90;;;;;;8239733;28;20197;-66
2023/08/01 12:08:35;;;;;;;2.40;0.80;;;24.80;99.90;;;;;;8252126;28;20289;-67
2023/08/01 12:12:44;;;;;;;1.77;1.02;;;25.20;99.90;;;;;;8251731;28;20230;-65
2023/08/01 12:16:46;;;;;;;1.35;0.75;;;25.50;99.90;;;;;;8253821;28;20206;-66
2023/08/01 12:20:47;;;;;;;1.77;0.70;;;25.10;99.90;;;;;;8249349;28;20255;-67
2023/08/01 12:24:49;;;;;;;4.93;1.30;;;24.60;99.90;;;;;;8251902;28;20294;-66
2023/08/01 12:28:51;;;;;;;1.10;1.00;;;24.70;99.90;;;;;;8251376;28;20193;-68
2023/08/01 12:32:52;;;;;;;0.98;0.70;;;25.20;99.90;;;;;;8254477;28;20222;-67
2023/08/01 12:36:53;;;;;;;2.22;1.13;;;25.10;99.90;;;;;;8250643;28;20273;-66
2023/08/01 12:40:53;;;;;;;3.23;1.00;;;25.10;99.90;;;;;;8243525;28;20191;-67
2023/08/01 12:44:54;;;;;;;0.90;0.80;;;24.30;99.90;;;;;;8240646;28;20184;-67
2023/08/01 12:48:55;;;;;;;2.10;0.90;;;23.40;99.90;;;;;;8243464;28;20195;-64
2023/08/01 12:52:55;;;;;;;0.80;0.70;;;23.20;99.90;;;;;;8250067;28;20215;-67
2023/08/01 12:56:56;;;;;;;1.37;0.50;;;23.00;99.90;;;;;;8244951;28;20191;-66
2023/08/01 13:00:57;;;;;;;1.20;0.87;;;22.90;99.90;;;;;;8244186;28;20230;-64
2023/08/01 13:04:57;;;;;;;0.80;0.60;;;23.00;99.90;;;;;;8244636;28;20194;-66
2023/08/01 13:08:58;;;;;;;2.73;0.60;;;23.50;99.90;;;;;;8241382;28;20517;-65
2023/08/01 13:13:00;;;;;;;2.73;0.43;;;24.00;99.90;;;;;;8242853;28;20215;-64
2023/08/01 13:17:00;;;;;;;0.73;0.50;;;24.60;99.90;;;;;;8239001;28;20200;-65
2023/08/01 13:21:01;;;;;;;1.00;0.50;;;24.90;99.90;;;;;;8244137;28;20188;-64
2023/08/01 13:25:03;;;;;;;2.27;0.90;;;25.10;99.90;;;;;;8241695;28;20191;-66
2023/08/01 13:29:04;;;;;;;1.10;0.65;;;25.30;99.90;;;;;;8245475;28;20199;-66
2023/08/01 13:33:05;;;;;;;2.05;0.50;;;25.50;99.90;;;;;;8247157;28;20206;-66
2023/08/01 13:37:06;;;;;;;0.82;0.63;;;25.90;99.90;;;;;;8243723;28;20184;-65
2023/08/01 13:41:06;;;;;;;0.93;0.80;;;26.00;99.90;;;;;;8256938;28;20207;-67
2023/08/01 13:45:07;;;;;;;0.98;0.77;;;26.30;99.90;;;;;;8242969;28;20214;-68
2023/08/01 13:49:08;;;;;;;1.17;0.90;;;26.10;99.90;;;;;;8241730;28;20185;-66
2023/08/01 13:53:11;;;;;;;0.75;0.70;;;25.90;99.90;;;;;;8252027;28;20291;-66
2023/08/01 13:57:12;;;;;;;2.20;0.90;;;26.00;99.90;;;;;;8243437;28;20279;-65
2023/08/01 14:01:13;;;;;;;0.98;0.88;;;26.00;99.90;;;;;;8240695;28;20187;-61
2023/08/01 14:05:14;;;;;;;1.55;0.82;;;25.90;99.90;;;;;;8243309;28;20188;-63
2023/08/01 14:09:15;;;;;;;0.55;0.45;;;25.20;99.90;;;;;;8243524;28;20215;-64
2023/08/01 14:13:16;;;;;;;1.10;0.80;;;24.70;99.90;;;;;;8239050;28;20207;-63
2023/08/01 14:17:16;;;;;;;0.97;0.87;;;24.30;99.90;;;;;;8241668;28;20195;-64
2023/08/01 14:21:17;;;;;;;4.27;0.90;;;24.20;99.90;;;;;;8240955;28;20575;-64
2023/08/01 14:25:18;;;;;;;2.10;0.70;;;23.60;99.90;;;;;;8236769;28;20194;-65
2023/08/01 14:29:22;;;;;;;2.23;1.17;;;22.50;1.00;;;;;;8232842;28;20191;-65
2023/08/01 14:33:22;;;;;;;1.37;1.00;;;21.70;1.00;;;;;;8233121;28;20620;-65
2023/08/01 14:37:25;;;;;;;2.07;1.00;;;21.20;1.00;;;;;;8239763;28;20279;-64
2023/08/01 14:41:26;;;;;;;1.77;1.20;;;20.70;1.00;;;;;;8243374;28;20187;-65
2023/08/01 14:45:27;;;;;;;1.97;1.37;;;20.30;7.30;;;;;;8238970;28;20330;-63
2023/08/01 14:49:29;;;;;;;1.67;0.70;;;20.00;45.00;;;;;;8232731;28;20362;-63
2023/08/01 14:53:37;;;;;;;3.20;1.10;;;19.50;1.00;;;;;;8235760;28;20222;-65
2023/08/01 14:57:37;;;;;;;1.13;0.60;;;19.30;1.00;;;;;;8233032;28;20229;-64
2023/08/01 15:01:39;;;;;;;1.30;1.00;;;19.20;1.00;;;;;;8239022;28;20248;-64
2023/08/01 15:05:40;;;;;;;0.70;0.40;;;19.10;58.00;;;;;;8243591;28;20195;-62
2023/08/01 15:09:43;;;;;;;1.50;0.70;;;19.10;35.00;;;;;;8237217;28;20211;-64
2023/08/01 15:13:44;;;;;;;1.53;0.60;;;19.10;64.40;;;;;;8238909;28;20215;-65
2023/08/01 15:17:44;;;;;;;0.93;0.80;;;19.30;99.90;;;;;;8243033;28;20270;-66
2023/08/01 15:21:45;;;;;;;2.27;0.60;;;19.60;99.90;;;;;;8257360;28;20195;-62
2023/08/01 15:25:57;;;;;;;1.87;0.60;;;19.80;47.90;;;;;;8232058;28;20191;-61
2023/08/01 15:29:58;;;;;;;1.03;0.53;;;20.00;33.80;;;;;;8244680;28;20194;-61
2023/08/01 15:33:59;;;;;;;2.90;0.70;;;20.10;30.40;;;;;;8242602;28;20207;-62
2023/08/01 15:38:00;;;;;;;1.80;0.87;;;20.10;40.10;;;;;;8245643;28;20212;-62
2023/08/01 15:42:00;;;;;;;1.43;1.20;;;20.00;76.40;;;;;;8240055;28;20225;-61
2023/08/01 15:46:02;;;;;;;2.80;1.20;;;19.80;99.90;;;;;;8241784;28;20192;-61
2023/08/01 15:50:03;;;;;;;1.70;1.00;;;19.70;99.90;;;;;;8239583;28;20551;-61
2023/08/01 15:54:04;;;;;;;2.37;0.87;;;19.70;99.90;;;;;;8234571;28;20248;-63
2023/08/01 15:58:05;;;;;;;3.17;1.13;;;19.80;99.90;;;;;;8233612;28;20187;-61
2023/08/01 16:02:06;;;;;;;2.00;0.60;;;19.70;99.90;;;;;;8236129;28;20191;-64
2023/08/01 16:06:07;;;;;;;1.23;0.60;;;19.70;99.40;;;;;;8235495;28;20307;-63
2023/08/01 16:10:08;;;;;;;1.63;0.70;;;19.60;86.10;;;;;;8220210;28;20271;-63
2023/08/01 16:14:09;;;;;;;1.50;0.70;;;19.70;97.10;;;;;;8235486;28;20219;-63
2023/08/01 16:18:10;;;;;;;3.40;0.93;;;20.00;54.10;;;;;;8253203;28;20207;-63
2023/08/01 16:22:10;;;;;;;2.97;0.60;;;20.10;4.40;;;;;;8243823;28;20297;-63
2023/08/01 16:26:11;;;;;;;1.40;0.80;;;20.30;1.00;;;;;;8248022;28;20269;-61
2023/08/01 16:30:12;;;;;;;1.13;0.67;;;20.50;1.00;;;;;;8245280;28;20211;-67
2023/08/01 16:34:13;;;;;;;4.37;0.70;;;20.70;1.00;;;;;;8244955;28;20211;-64
2023/08/01 16:38:14;;;;;;;0.90;0.60;;;20.70;1.00;;;;;;8247961;28;20244;-64
2023/08/01 16:42:15;;;;;;;2.53;0.80;;;20.60;1.00;;;;;;8238680;28;20191;-65
2023/08/01 16:46:17;;;;;;;0.90;0.60;;;20.70;1.00;;;;;;8237696;28;20192;-65
2023/08/01 16:50:19;;;;;;;1.63;0.90;;;20.80;1.00;;;;;;8255194;28;20188;-67
2023/08/01 16:54:20;;;;;;;1.43;0.90;;;20.90;1.00;;;;;;8240628;28;20207;-67
2023/08/01 16:58:21;;;;;;;2.00;1.13;;;21.10;1.00;;;;;;8247338;28;20218;-68
2023/08/01 17:02:22;;;;;;;2.60;1.33;;;21.30;1.00;;;;;;8244052;28;20271;-66
2023/08/01 17:06:22;;;;;;;2.10;1.10;;;21.10;1.00;;;;;;8248009;28;20199;-65
2023/08/01 17:10:24;;;;;;;2.60;1.10;;;21.00;1.00;;;;;;8240268;28;20521;-65
2023/08/01 17:14:24;;;;;;;1.60;1.10;;;20.90;1.00;;;;;;8234549;28;20230;-64
2023/08/01 17:18:25;;;;;;;1.83;1.10;;;21.00;1.00;;;;;;8254604;28;20184;-64
2023/08/01 17:22:28;;;;;;;1.70;1.43;;;21.10;1.00;;;;;;8248868;28;20190;-64
2023/08/01 17:26:30;;;;;;;1.63;1.53;;;21.20;1.00;;;;;;8241384;28;20196;-63
2023/08/01 17:30:30;;;;;;;1.57;1.47;;;21.20;1.00;;;;;;8240510;28;20199;-63
2023/08/01 17:34:32;;;;;;;2.60;1.27;;;21.30;1.00;;;;;;8244699;28;20283;-64
2023/08/01 17:38:35;;;;;;;1.93;1.30;;;21.60;1.00;;;;;;8262156;28;20291;-65
2023/08/01 17:42:35;;;;;;;1.80;1.40;;;22.00;1.00;;;;;;8239267;28;20188;-64
2023/08/01 17:46:36;;;;;;;1.80;1.43;;;22.30;1.00;;;;;;8248046;28;20183;-64
2023/08/01 17:50:40;;;;;;;3.77;1.40;;;22.40;1.00;;;;;;8241707;28;20192;-65
2023/08/01 17:54:41;;;;;;;2.80;1.30;;;21.60;1.00;;;;;;8243217;28;20220;-66
2023/08/01 17:58:42;;;;;;;2.00;1.80;;;20.90;1.00;;;;;;8242490;28;20198;-66
2023/08/01 18:02:43;;;;;;;1.87;1.73;;;20.20;1.00;;;;;;8244551;28;20275;-67
2023/08/01 18:06:44;;;;;;;2.10;1.90;;;19.80;1.00;;;;;;8242505;28;20210;-68
2023/08/01 18:10:44;;;;;;;1.93;1.63;;;19.40;1.00;;;;;;8234263;28;20239;-63
2023/08/01 18:14:45;;;;;;;1.77;1.33;;;19.10;1.00;;;;;;8238028;28;20258;-65
2023/08/01 18:18:46;;;;;;;1.73;1.53;;;18.80;48.00;;;;;;8234281;28;20192;-69
2023/08/01 18:22:47;;;;;;;2.07;1.87;;;18.60;99.90;;;;;;8236279;28;20267;-66
2023/08/01 18:26:47;;;;;;;2.33;1.97;;;18.50;99.90;;;;;;8234239;28;20196;-68
2023/08/01 18:30:48;;;;;;;2.23;2.03;;;18.40;99.90;;;;;;8242941;28;20194;-68
2023/08/01 18:34:54;;;;;;;3.23;2.33;;;18.30;99.90;;;;;;8229837;28;20215;-67
2023/08/01 18:38:55;;;;;;;2.63;2.40;;;18.20;99.90;;;;;;8235433;28;20188;-65
2023/08/01 18:42:56;;;;;;;2.73;2.30;;;18.20;99.90;;;;;;8238961;28;20210;-65
2023/08/01 18:46:57;;;;;;;2.93;2.63;;;18.10;99.90;;;;;;8236417;28;20608;-67
2023/08/01 18:50:58;;;;;;;3.40;2.20;;;18.00;1.00;;;;;;8232783;28;20238;-66
2023/08/01 18:54:59;;;;;;;3.13;2.33;;;17.80;1.00;;;;;;8226678;28;20264;-66
2023/08/01 18:58:59;;;;;;;2.70;2.37;;;17.70;1.00;;;;;;8237940;28;20258;-64
2023/08/01 19:03:00;;;;;;;2.87;2.40;;;17.60;1.00;;;;;;8229417;28;20286;-61
2023/08/01 19:07:01;;;;;;;3.50;2.50;;;17.50;1.00;;;;;;8237662;28;20195;-63
2023/08/01 19:11:02;;;;;;;2.90;2.50;;;17.50;7.40;;;;;;8228235;28;20214;-63
2023/08/01 19:15:04;;;;;;;2.50;2.30;;;17.40;41.60;;;;;;8233538;28;20777;-62
2023/08/01 19:19:05;;;;;;;2.93;2.37;;;17.40;70.30;;;;;;8234258;28;20247;-60
2023/08/01 19:23:06;;;;;;;2.33;2.07;;;17.30;99.90;;;;;;8233876;28;20196;-65
2023/08/01 19:27:07;;;;;;;3.27;2.47;;;17.20;99.90;;;;;;8237202;28;20640;-59
2023/08/01 19:31:09;;;;;;;2.57;2.33;;;17.20;99.90;;;;;;8231140;28;20446;-62
2023/08/01 19:35:10;;;;;;;3.70;2.57;;;17.10;99.90;;;;;;8217545;28;20274;-63
2023/08/01 19:39:13;;;;;;;3.43;2.70;;;17.00;99.90;;;;;;8231596;28;20210;-64
2023/08/01 19:43:15;;;;;;;3.00;2.63;;;16.90;99.90;;;;;;8224176;28;20196;-63
2023/08/01 19:47:15;;;;;;;4.10;3.20;;;16.80;99.90;;;;;;8229529;28;20191;-64
2023/08/01 19:51:16;;;;;;;6.53;3.23;;;16.70;99.90;;;;;;8236984;28;20198;-61
2023/08/01 19:55:18;;;;;;;4.03;3.03;;;16.60;1.00;;;;;;8238828;28;20698;-59
2023/08/01 19:59:20;;;;;;;5.13;2.70;;;16.60;1.00;;;;;;8241782;28;20184;-60
2023/08/01 20:03:21;;;;;;;7.20;3.40;;;16.50;1.70;;;;;;8249453;28;20184;-59
2023/08/01 20:07:22;;;;;;;6.97;3.00;;;16.40;99.90;;;;;;8251958;28;20192;-60
2023/08/01 20:11:23;;;;;;;4.20;3.07;;;16.40;99.90;;;;;;8243462;28;20208;-63
2023/08/01 20:15:23;;;;;;;5.93;3.10;;;16.30;99.90;;;;;;8237393;28;20199;-62
2023/08/01 20:19:24;;;;;;;4.57;3.20;;;16.30;99.90;;;;;;8217454;28;20224;-62
2023/08/01 20:23:25;;;;;;;4.10;3.30;;;16.30;99.90;;;;;;8240297;28;20230;-59
2023/08/01 20:27:26;;;;;;;4.97;3.20;;;16.20;99.90;;;;;;8234744;28;20289;-61
2023/08/01 20:31:27;;;;;;;4.57;3.20;;;16.20;99.90;;;;;;8253789;28;20202;-60
2023/08/01 20:35:28;;;;;;;5.30;3.27;;;16.10;99.90;;;;;;8250550;28;20189;-61
2023/08/01 20:39:35;;;;;;;6.10;3.40;;;16.10;1.00;;;;;;8247816;28;20183;-63
2023/08/01 20:43:36;;;;;;;3.70;2.90;;;16.00;1.00;;;;;;8241408;28;20198;-61
2023/08/01 20:47:37;;;;;;;4.80;3.73;;;16.00;1.00;;;;;;8252977;28;20222;-60
2023/08/01 20:51:38;;;;;;;7.03;3.50;;;15.90;1.00;;;;;;8244252;28;20238;-60
2023/08/01 20:55:38;;;;;;;6.50;3.10;;;15.90;1.00;;;;;;8241254;28;20188;-59
2023/08/01 20:59:39;;;;;;;3.63;3.33;;;15.90;1.00;;;;;;8243869;28;20195;-63
2023/08/01 21:03:41;;;;;;;4.30;3.63;;;15.90;1.00;;;;;;8249702;28;20203;-60